Estación Meteorológica Peña el Pijo (Robertgarden) [ 01/30/23 15:13:50 CET ]

Fecha Hora Presion(HPa) Temp (°C) Humedad % Rocio (°C) Viento ( m/s) Direccion Lluvia 1Hora(mm) Lluvia 24H(mm) LLuvia Total(mm)
2010-Nov-24 01:01:15 1003.400 6.1 85 3.8         2.07
2010-Nov-24 02:03:20 1003.000 5.9 87 3.9         2.07
2010-Nov-24 03:01:14 1002.600 5.8 89 4.1         2.07
2010-Nov-24 04:01:12 1002.600 5.8 91 4.5     1.03 1.03 3.10
2010-Nov-24 05:01:12 1002.300 5.8 92 4.6       1.03 3.10
2010-Nov-24 06:01:14 1002.700 5.8 93 4.8       1.03 3.10
2010-Nov-24 07:01:12 1002.900 5.4 93 4.3       1.03 3.10
2010-Nov-24 08:01:21 1003.200 5.6 93 4.5       1.03 3.10
2010-Nov-24 09:01:13 1003.700 6.1 93 5.0       1.03 3.10
2010-Nov-24 10:01:14 1004.000 7.1 94 6.2       1.03 3.10
2010-Nov-24 11:01:13 1004.100 8.1 94 7.2       1.03 3.10
2010-Nov-24 12:01:13 1004.100 9.1 94 8.2       1.03 3.10
2010-Nov-24 13:01:13 1003.400 10.3 92 9.0       1.03 3.10
2010-Nov-24 14:01:14 1003.000 10.8 91 9.4       1.03 3.10
2010-Nov-24 15:01:18 1002.700 12.1 86 10.0       1.03 3.10
2010-Nov-24 16:01:20 1002.700 10.7 89 8.9       1.03 3.10
2010-Nov-24 17:01:14 1002.900 9.8 91 8.4       1.03 3.10
2010-Nov-24 18:01:20 1003.200 9.2 93 8.1       1.03 3.10
2010-Nov-24 19:01:18 1003.500 8.9 94 8.0     1.03 2.07 4.14
2010-Nov-24 20:01:21 1003.400 8.7 94 7.8       2.07 4.14
2010-Nov-24 21:01:18 1003.500 8.6 94 7.7       2.07 4.14
2010-Nov-24 22:01:19 1003.700 8.5 95 7.6     1.55 3.62 5.69
2010-Nov-24 23:01:12 1003.700 8.1 95 7.3     0.51 4.14 6.21

Temperatura Máxima:12°    Temperatura Mínima:
Presión Máxima:1004.100 Hpa    Presión Mínima:1002.300 Hpa


Volver